sensor_id;sensor_type;location;lat;lon;timestamp;P1;durP1;ratioP1;P2;durP2;ratioP2
68384;SDS011;55336;43.062;25.626;2022-12-07T00:01:04;15.73;;;11.13;;
68384;SDS011;55336;43.062;25.626;2022-12-07T00:03:31;11.38;;;10.27;;
68384;SDS011;55336;43.062;25.626;2022-12-07T00:05:58;16.63;;;9.85;;
68384;SDS011;55336;43.062;25.626;2022-12-07T00:08:24;11.38;;;10.30;;
68384;SDS011;55336;43.062;25.626;2022-12-07T00:10:52;19.00;;;10.82;;
68384;SDS011;55336;43.062;25.626;2022-12-07T00:13:18;11.40;;;9.05;;
68384;SDS011;55336;43.062;25.626;2022-12-07T00:15:44;12.43;;;11.13;;
68384;SDS011;55336;43.062;25.626;2022-12-07T00:18:13;11.73;;;10.40;;
68384;SDS011;55336;43.062;25.626;2022-12-07T00:20:38;14.18;;;10.85;;
68384;SDS011;55336;43.062;25.626;2022-12-07T00:23:04;12.45;;;11.23;;
68384;SDS011;55336;43.062;25.626;2022-12-07T00:27:57;15.87;;;13.10;;
68384;SDS011;55336;43.062;25.626;2022-12-07T00:30:23;12.23;;;10.93;;
68384;SDS011;55336;43.062;25.626;2022-12-07T00:32:49;13.13;;;11.45;;
68384;SDS011;55336;43.062;25.626;2022-12-07T00:35:15;14.05;;;12.63;;
68384;SDS011;55336;43.062;25.626;2022-12-07T00:37:42;14.90;;;13.40;;
68384;SDS011;55336;43.062;25.626;2022-12-07T00:40:08;14.55;;;12.85;;
68384;SDS011;55336;43.062;25.626;2022-12-07T00:42:34;15.05;;;12.30;;
68384;SDS011;55336;43.062;25.626;2022-12-07T00:45:00;16.13;;;12.02;;
68384;SDS011;55336;43.062;25.626;2022-12-07T00:49:52;12.73;;;11.52;;
68384;SDS011;55336;43.062;25.626;2022-12-07T00:52:18;13.70;;;12.15;;
68384;SDS011;55336;43.062;25.626;2022-12-07T00:54:44;13.85;;;12.45;;
68384;SDS011;55336;43.062;25.626;2022-12-07T00:57:10;14.30;;;11.90;;
68384;SDS011;55336;43.062;25.626;2022-12-07T01:02:02;11.27;;;10.27;;
68384;SDS011;55336;43.062;25.626;2022-12-07T01:04:28;13.88;;;12.25;;
68384;SDS011;55336;43.062;25.626;2022-12-07T01:06:55;13.80;;;10.90;;
68384;SDS011;55336;43.062;25.626;2022-12-07T01:11:49;11.50;;;10.15;;
68384;SDS011;55336;43.062;25.626;2022-12-07T01:16:41;12.15;;;10.88;;
68384;SDS011;55336;43.062;25.626;2022-12-07T01:21:35;11.90;;;10.77;;
68384;SDS011;55336;43.062;25.626;2022-12-07T01:24:04;14.82;;;13.32;;
68384;SDS011;55336;43.062;25.626;2022-12-07T01:26:32;13.00;;;11.73;;
68384;SDS011;55336;43.062;25.626;2022-12-07T01:28:58;13.20;;;11.52;;
68384;SDS011;55336;43.062;25.626;2022-12-07T01:31:26;12.20;;;10.88;;
68384;SDS011;55336;43.062;25.626;2022-12-07T01:33:54;12.35;;;11.05;;
68384;SDS011;55336;43.062;25.626;2022-12-07T01:36:25;11.20;;;10.10;;
68384;SDS011;55336;43.062;25.626;2022-12-07T01:38:55;10.45;;;9.50;;
68384;SDS011;55336;43.062;25.626;2022-12-07T01:41:27;11.40;;;9.90;;
68384;SDS011;55336;43.062;25.626;2022-12-07T01:44:16;9.65;;;8.65;;
68384;SDS011;55336;43.062;25.626;2022-12-07T01:46:44;10.60;;;9.60;;
68384;SDS011;55336;43.062;25.626;2022-12-07T01:49:14;9.40;;;8.50;;
68384;SDS011;55336;43.062;25.626;2022-12-07T01:51:48;8.45;;;7.68;;
68384;SDS011;55336;43.062;25.626;2022-12-07T01:54:16;10.00;;;8.23;;
68384;SDS011;55336;43.062;25.626;2022-12-07T01:56:45;10.38;;;7.90;;
68384;SDS011;55336;43.062;25.626;2022-12-07T01:59:18;9.80;;;8.00;;
68384;SDS011;55336;43.062;25.626;2022-12-07T02:01:50;8.65;;;7.88;;
68384;SDS011;55336;43.062;25.626;2022-12-07T02:04:16;8.15;;;7.35;;
68384;SDS011;55336;43.062;25.626;2022-12-07T02:06:43;8.50;;;7.57;;
68384;SDS011;55336;43.062;25.626;2022-12-07T02:09:14;8.98;;;8.10;;
68384;SDS011;55336;43.062;25.626;2022-12-07T02:11:40;9.20;;;8.27;;
68384;SDS011;55336;43.062;25.626;2022-12-07T02:14:09;8.95;;;8.05;;
68384;SDS011;55336;43.062;25.626;2022-12-07T02:16:57;8.35;;;7.05;;
68384;SDS011;55336;43.062;25.626;2022-12-07T02:19:59;8.68;;;7.88;;
68384;SDS011;55336;43.062;25.626;2022-12-07T02:23:00;8.63;;;7.38;;
68384;SDS011;55336;43.062;25.626;2022-12-07T02:31:25;8.68;;;7.78;;
68384;SDS011;55336;43.062;25.626;2022-12-07T02:34:00;8.10;;;7.40;;
68384;SDS011;55336;43.062;25.626;2022-12-07T02:36:43;9.13;;;8.13;;
68384;SDS011;55336;43.062;25.626;2022-12-07T02:39:22;9.20;;;8.30;;
68384;SDS011;55336;43.062;25.626;2022-12-07T02:42:03;11.10;;;9.73;;
68384;SDS011;55336;43.062;25.626;2022-12-07T02:44:52;9.85;;;8.88;;
68384;SDS011;55336;43.062;25.626;2022-12-07T02:47:18;10.13;;;9.02;;
68384;SDS011;55336;43.062;25.626;2022-12-07T02:49:46;16.08;;;9.95;;
68384;SDS011;55336;43.062;25.626;2022-12-07T02:52:14;12.80;;;9.13;;
68384;SDS011;55336;43.062;25.626;2022-12-07T02:54:40;10.45;;;9.38;;
68384;SDS011;55336;43.062;25.626;2022-12-07T03:00:13;10.32;;;9.32;;
68384;SDS011;55336;43.062;25.626;2022-12-07T03:02:46;13.68;;;10.00;;
68384;SDS011;55336;43.062;25.626;2022-12-07T03:08:05;9.70;;;8.73;;
68384;SDS011;55336;43.062;25.626;2022-12-07T03:11:03;10.68;;;9.57;;
68384;SDS011;55336;43.062;25.626;2022-12-07T03:14:04;11.00;;;9.90;;
68384;SDS011;55336;43.062;25.626;2022-12-07T03:17:01;10.05;;;9.00;;
68384;SDS011;55336;43.062;25.626;2022-12-07T03:19:38;10.45;;;9.00;;
68384;SDS011;55336;43.062;25.626;2022-12-07T03:22:10;12.25;;;9.90;;
68384;SDS011;55336;43.062;25.626;2022-12-07T03:24:47;14.02;;;10.02;;
68384;SDS011;55336;43.062;25.626;2022-12-07T03:27:25;10.57;;;9.52;;
68384;SDS011;55336;43.062;25.626;2022-12-07T03:29:59;10.20;;;8.98;;
68384;SDS011;55336;43.062;25.626;2022-12-07T03:35:25;13.88;;;10.77;;
68384;SDS011;55336;43.062;25.626;2022-12-07T03:38:06;11.45;;;9.90;;
68384;SDS011;55336;43.062;25.626;2022-12-07T03:43:43;10.00;;;8.98;;
68384;SDS011;55336;43.062;25.626;2022-12-07T03:46:20;11.18;;;9.65;;
68384;SDS011;55336;43.062;25.626;2022-12-07T03:52:26;11.57;;;10.40;;
68384;SDS011;55336;43.062;25.626;2022-12-07T03:58:04;18.67;;;9.98;;
68384;SDS011;55336;43.062;25.626;2022-12-07T04:00:36;15.25;;;10.77;;
68384;SDS011;55336;43.062;25.626;2022-12-07T04:03:03;11.73;;;9.40;;
68384;SDS011;55336;43.062;25.626;2022-12-07T04:05:29;12.20;;;10.48;;
68384;SDS011;55336;43.062;25.626;2022-12-07T04:07:57;10.57;;;9.52;;
68384;SDS011;55336;43.062;25.626;2022-12-07T04:10:23;11.70;;;9.77;;
68384;SDS011;55336;43.062;25.626;2022-12-07T04:12:49;11.90;;;10.70;;
68384;SDS011;55336;43.062;25.626;2022-12-07T04:15:15;25.08;;;10.52;;
68384;SDS011;55336;43.062;25.626;2022-12-07T04:17:41;13.77;;;10.88;;
68384;SDS011;55336;43.062;25.626;2022-12-07T04:20:10;12.18;;;10.10;;
68384;SDS011;55336;43.062;25.626;2022-12-07T04:22:37;12.15;;;10.93;;
68384;SDS011;55336;43.062;25.626;2022-12-07T04:25:03;11.38;;;9.98;;
68384;SDS011;55336;43.062;25.626;2022-12-07T04:27:32;14.35;;;10.27;;
68384;SDS011;55336;43.062;25.626;2022-12-07T04:29:58;13.52;;;10.18;;
68384;SDS011;55336;43.062;25.626;2022-12-07T04:32:24;10.30;;;9.20;;
68384;SDS011;55336;43.062;25.626;2022-12-07T04:34:50;17.33;;;10.80;;
68384;SDS011;55336;43.062;25.626;2022-12-07T04:37:19;16.52;;;10.35;;
68384;SDS011;55336;43.062;25.626;2022-12-07T04:39:45;11.60;;;9.80;;
68384;SDS011;55336;43.062;25.626;2022-12-07T04:42:11;12.32;;;10.35;;
68384;SDS011;55336;43.062;25.626;2022-12-07T04:44:40;14.00;;;9.30;;
68384;SDS011;55336;43.062;25.626;2022-12-07T04:47:06;13.27;;;9.70;;
68384;SDS011;55336;43.062;25.626;2022-12-07T04:49:32;10.80;;;9.70;;
68384;SDS011;55336;43.062;25.626;2022-12-07T04:51:59;10.18;;;9.05;;
68384;SDS011;55336;43.062;25.626;2022-12-07T04:54:26;14.05;;;9.38;;
68384;SDS011;55336;43.062;25.626;2022-12-07T04:56:52;14.10;;;10.20;;
68384;SDS011;55336;43.062;25.626;2022-12-07T04:59:18;11.27;;;10.05;;
68384;SDS011;55336;43.062;25.626;2022-12-07T05:01:44;10.90;;;9.80;;
68384;SDS011;55336;43.062;25.626;2022-12-07T05:04:10;12.20;;;10.90;;
68384;SDS011;55336;43.062;25.626;2022-12-07T05:06:36;9.63;;;8.73;;
68384;SDS011;55336;43.062;25.626;2022-12-07T05:09:02;10.45;;;8.98;;
68384;SDS011;55336;43.062;25.626;2022-12-07T05:11:29;9.75;;;8.38;;
68384;SDS011;55336;43.062;25.626;2022-12-07T05:14:07;10.20;;;9.23;;
68384;SDS011;55336;43.062;25.626;2022-12-07T05:16:38;10.45;;;9.18;;
68384;SDS011;55336;43.062;25.626;2022-12-07T05:19:05;10.75;;;9.65;;
68384;SDS011;55336;43.062;25.626;2022-12-07T05:21:31;9.77;;;8.80;;
68384;SDS011;55336;43.062;25.626;2022-12-07T05:24:00;9.63;;;8.63;;
68384;SDS011;55336;43.062;25.626;2022-12-07T05:26:26;10.55;;;8.55;;
68384;SDS011;55336;43.062;25.626;2022-12-07T05:28:52;8.90;;;8.00;;
68384;SDS011;55336;43.062;25.626;2022-12-07T05:31:20;9.50;;;8.52;;
68384;SDS011;55336;43.062;25.626;2022-12-07T05:33:46;9.50;;;8.50;;
68384;SDS011;55336;43.062;25.626;2022-12-07T05:36:12;10.38;;;8.52;;
68384;SDS011;55336;43.062;25.626;2022-12-07T05:38:38;9.48;;;8.20;;
68384;SDS011;55336;43.062;25.626;2022-12-07T05:41:07;10.27;;;9.27;;
68384;SDS011;55336;43.062;25.626;2022-12-07T05:43:54;8.93;;;8.13;;
68384;SDS011;55336;43.062;25.626;2022-12-07T05:46:20;9.65;;;8.82;;
68384;SDS011;55336;43.062;25.626;2022-12-07T05:48:46;12.65;;;8.98;;
68384;SDS011;55336;43.062;25.626;2022-12-07T05:51:13;10.05;;;9.02;;
68384;SDS011;55336;43.062;25.626;2022-12-07T05:53:39;10.68;;;9.55;;
68384;SDS011;55336;43.062;25.626;2022-12-07T05:56:05;11.75;;;8.85;;
68384;SDS011;55336;43.062;25.626;2022-12-07T05:58:31;9.02;;;8.13;;
68384;SDS011;55336;43.062;25.626;2022-12-07T06:01:16;8.48;;;7.68;;
68384;SDS011;55336;43.062;25.626;2022-12-07T06:03:42;13.43;;;8.80;;
68384;SDS011;55336;43.062;25.626;2022-12-07T06:06:08;11.73;;;8.95;;
68384;SDS011;55336;43.062;25.626;2022-12-07T06:08:34;10.43;;;9.32;;
68384;SDS011;55336;43.062;25.626;2022-12-07T06:11:01;12.45;;;9.52;;
68384;SDS011;55336;43.062;25.626;2022-12-07T06:13:48;9.25;;;8.20;;
68384;SDS011;55336;43.062;25.626;2022-12-07T06:16:17;10.45;;;8.57;;
68384;SDS011;55336;43.062;25.626;2022-12-07T06:18:43;10.90;;;8.65;;
68384;SDS011;55336;43.062;25.626;2022-12-07T06:21:09;11.65;;;8.35;;
68384;SDS011;55336;43.062;25.626;2022-12-07T06:23:35;9.02;;;8.10;;
68384;SDS011;55336;43.062;25.626;2022-12-07T06:26:04;9.73;;;8.23;;
68384;SDS011;55336;43.062;25.626;2022-12-07T06:28:29;9.13;;;8.23;;
68384;SDS011;55336;43.062;25.626;2022-12-07T06:31:01;9.43;;;8.52;;
68384;SDS011;55336;43.062;25.626;2022-12-07T06:33:28;10.27;;;9.25;;
68384;SDS011;55336;43.062;25.626;2022-12-07T06:35:54;9.32;;;8.13;;
68384;SDS011;55336;43.062;25.626;2022-12-07T06:38:20;9.95;;;8.95;;
68384;SDS011;55336;43.062;25.626;2022-12-07T06:40:46;10.98;;;9.05;;
68384;SDS011;55336;43.062;25.626;2022-12-07T06:43:13;11.43;;;9.65;;
68384;SDS011;55336;43.062;25.626;2022-12-07T06:45:40;11.07;;;9.00;;
68384;SDS011;55336;43.062;25.626;2022-12-07T06:48:06;14.25;;;8.38;;
68384;SDS011;55336;43.062;25.626;2022-12-07T06:50:33;10.98;;;9.70;;
68384;SDS011;55336;43.062;25.626;2022-12-07T06:52:59;10.48;;;9.48;;
68384;SDS011;55336;43.062;25.626;2022-12-07T06:55:24;12.18;;;10.98;;
68384;SDS011;55336;43.062;25.626;2022-12-07T07:00:16;12.82;;;11.73;;
68384;SDS011;55336;43.062;25.626;2022-12-07T07:02:42;12.15;;;11.00;;
68384;SDS011;55336;43.062;25.626;2022-12-07T07:05:08;12.13;;;10.95;;
68384;SDS011;55336;43.062;25.626;2022-12-07T07:07:34;12.18;;;10.93;;
68384;SDS011;55336;43.062;25.626;2022-12-07T07:12:25;13.35;;;11.95;;
68384;SDS011;55336;43.062;25.626;2022-12-07T07:17:17;13.77;;;10.93;;
68384;SDS011;55336;43.062;25.626;2022-12-07T07:22:08;14.95;;;11.63;;
68384;SDS011;55336;43.062;25.626;2022-12-07T07:24:34;12.48;;;11.18;;
68384;SDS011;55336;43.062;25.626;2022-12-07T07:29:26;9.30;;;8.35;;
68384;SDS011;55336;43.062;25.626;2022-12-07T07:31:52;10.18;;;9.07;;
68384;SDS011;55336;43.062;25.626;2022-12-07T07:34:17;10.20;;;9.13;;
68384;SDS011;55336;43.062;25.626;2022-12-07T07:36:43;12.63;;;9.77;;
68384;SDS011;55336;43.062;25.626;2022-12-07T07:41:37;10.05;;;8.93;;
68384;SDS011;55336;43.062;25.626;2022-12-07T07:46:29;10.85;;;8.57;;
68384;SDS011;55336;43.062;25.626;2022-12-07T07:48:55;10.15;;;8.90;;
68384;SDS011;55336;43.062;25.626;2022-12-07T07:53:46;8.43;;;7.72;;
68384;SDS011;55336;43.062;25.626;2022-12-07T07:58:38;8.27;;;7.47;;
68384;SDS011;55336;43.062;25.626;2022-12-07T08:01:07;9.55;;;8.65;;
68384;SDS011;55336;43.062;25.626;2022-12-07T08:03:33;9.50;;;8.45;;
68384;SDS011;55336;43.062;25.626;2022-12-07T08:05:59;7.78;;;7.13;;
68384;SDS011;55336;43.062;25.626;2022-12-07T08:08:26;9.43;;;8.15;;
68384;SDS011;55336;43.062;25.626;2022-12-07T08:13:17;8.48;;;7.63;;
68384;SDS011;55336;43.062;25.626;2022-12-07T08:18:10;7.68;;;6.97;;
68384;SDS011;55336;43.062;25.626;2022-12-07T08:20:37;8.55;;;7.60;;
68384;SDS011;55336;43.062;25.626;2022-12-07T08:23:05;8.52;;;7.72;;
68384;SDS011;55336;43.062;25.626;2022-12-07T08:25:32;9.57;;;8.68;;
68384;SDS011;55336;43.062;25.626;2022-12-07T08:27:58;9.20;;;8.30;;
68384;SDS011;55336;43.062;25.626;2022-12-07T08:30:25;8.13;;;7.43;;
68384;SDS011;55336;43.062;25.626;2022-12-07T08:32:51;8.43;;;7.63;;
68384;SDS011;55336;43.062;25.626;2022-12-07T08:37:43;7.30;;;6.60;;
68384;SDS011;55336;43.062;25.626;2022-12-07T08:42:36;6.45;;;5.82;;
68384;SDS011;55336;43.062;25.626;2022-12-07T08:45:06;8.93;;;7.28;;
68384;SDS011;55336;43.062;25.626;2022-12-07T08:47:37;8.88;;;7.93;;
68384;SDS011;55336;43.062;25.626;2022-12-07T08:50:07;8.18;;;7.38;;
68384;SDS011;55336;43.062;25.626;2022-12-07T08:52:35;9.15;;;7.20;;
68384;SDS011;55336;43.062;25.626;2022-12-07T08:55:01;8.27;;;6.85;;
68384;SDS011;55336;43.062;25.626;2022-12-07T08:57:30;7.38;;;6.38;;
68384;SDS011;55336;43.062;25.626;2022-12-07T08:59:58;6.47;;;5.88;;
68384;SDS011;55336;43.062;25.626;2022-12-07T09:04:50;6.85;;;6.15;;
68384;SDS011;55336;43.062;25.626;2022-12-07T09:09:41;7.55;;;6.85;;
68384;SDS011;55336;43.062;25.626;2022-12-07T09:14:33;6.18;;;5.68;;
68384;SDS011;55336;43.062;25.626;2022-12-07T09:19:31;6.72;;;6.13;;
68384;SDS011;55336;43.062;25.626;2022-12-07T09:24:23;7.03;;;6.43;;
68384;SDS011;55336;43.062;25.626;2022-12-07T09:29:14;7.85;;;7.07;;
68384;SDS011;55336;43.062;25.626;2022-12-07T09:34:06;6.75;;;6.20;;
68384;SDS011;55336;43.062;25.626;2022-12-07T09:38:58;7.07;;;6.38;;
68384;SDS011;55336;43.062;25.626;2022-12-07T09:41:24;6.95;;;6.30;;
68384;SDS011;55336;43.062;25.626;2022-12-07T09:43:52;12.38;;;7.82;;
68384;SDS011;55336;43.062;25.626;2022-12-07T09:46:28;8.85;;;7.95;;
68384;SDS011;55336;43.062;25.626;2022-12-07T09:48:59;11.15;;;8.38;;
68384;SDS011;55336;43.062;25.626;2022-12-07T09:53:54;12.05;;;7.63;;
68384;SDS011;55336;43.062;25.626;2022-12-07T09:56:23;7.82;;;7.13;;
68384;SDS011;55336;43.062;25.626;2022-12-07T09:58:49;7.95;;;7.25;;
68384;SDS011;55336;43.062;25.626;2022-12-07T10:01:22;8.25;;;7.50;;
68384;SDS011;55336;43.062;25.626;2022-12-07T10:06:18;7.70;;;7.05;;
68384;SDS011;55336;43.062;25.626;2022-12-07T10:11:10;6.22;;;5.75;;
68384;SDS011;55336;43.062;25.626;2022-12-07T10:13:41;7.32;;;6.57;;
68384;SDS011;55336;43.062;25.626;2022-12-07T10:19:19;6.90;;;6.13;;
68384;SDS011;55336;43.062;25.626;2022-12-07T10:24:43;7.35;;;6.60;;
68384;SDS011;55336;43.062;25.626;2022-12-07T10:27:25;6.90;;;6.20;;
68384;SDS011;55336;43.062;25.626;2022-12-07T10:29:55;7.38;;;5.93;;
68384;SDS011;55336;43.062;25.626;2022-12-07T10:32:31;7.40;;;6.13;;
68384;SDS011;55336;43.062;25.626;2022-12-07T10:37:47;6.97;;;6.28;;
68384;SDS011;55336;43.062;25.626;2022-12-07T10:40:27;6.80;;;6.20;;
68384;SDS011;55336;43.062;25.626;2022-12-07T10:43:05;7.30;;;6.35;;
68384;SDS011;55336;43.062;25.626;2022-12-07T10:48:29;5.90;;;5.40;;
68384;SDS011;55336;43.062;25.626;2022-12-07T10:51:13;6.47;;;5.85;;
68384;SDS011;55336;43.062;25.626;2022-12-07T10:54:01;7.63;;;6.93;;
68384;SDS011;55336;43.062;25.626;2022-12-07T10:59:45;6.90;;;6.30;;
68384;SDS011;55336;43.062;25.626;2022-12-07T11:12:40;7.35;;;6.68;;
68384;SDS011;55336;43.062;25.626;2022-12-07T11:26:13;7.93;;;6.55;;
68384;SDS011;55336;43.062;25.626;2022-12-07T11:31:29;7.25;;;6.55;;
68384;SDS011;55336;43.062;25.626;2022-12-07T11:36:45;7.65;;;6.88;;
68384;SDS011;55336;43.062;25.626;2022-12-07T11:41:40;5.68;;;5.18;;
68384;SDS011;55336;43.062;25.626;2022-12-07T11:46:45;7.35;;;6.28;;
68384;SDS011;55336;43.062;25.626;2022-12-07T11:52:05;8.02;;;7.22;;
68384;SDS011;55336;43.062;25.626;2022-12-07T11:54:40;7.28;;;6.68;;
68384;SDS011;55336;43.062;25.626;2022-12-07T11:57:10;6.75;;;6.15;;
68384;SDS011;55336;43.062;25.626;2022-12-07T11:59:45;7.55;;;6.28;;
68384;SDS011;55336;43.062;25.626;2022-12-07T12:02:22;9.05;;;7.55;;
68384;SDS011;55336;43.062;25.626;2022-12-07T12:07:38;9.35;;;7.78;;
68384;SDS011;55336;43.062;25.626;2022-12-07T12:10:06;7.90;;;7.20;;
68384;SDS011;55336;43.062;25.626;2022-12-07T12:13:03;6.80;;;6.13;;
68384;SDS011;55336;43.062;25.626;2022-12-07T12:21:12;7.20;;;6.60;;
68384;SDS011;55336;43.062;25.626;2022-12-07T12:23:49;7.13;;;6.47;;
68384;SDS011;55336;43.062;25.626;2022-12-07T12:26:21;5.88;;;5.30;;
68384;SDS011;55336;43.062;25.626;2022-12-07T12:29:02;6.47;;;5.88;;
68384;SDS011;55336;43.062;25.626;2022-12-07T12:31:31;6.53;;;5.93;;
68384;SDS011;55336;43.062;25.626;2022-12-07T12:34:02;6.32;;;5.70;;
68384;SDS011;55336;43.062;25.626;2022-12-07T12:39:11;8.88;;;6.78;;
68384;SDS011;55336;43.062;25.626;2022-12-07T12:51:46;6.88;;;5.57;;
68384;SDS011;55336;43.062;25.626;2022-12-07T12:59:23;6.15;;;5.55;;
68384;SDS011;55336;43.062;25.626;2022-12-07T13:01:56;6.18;;;5.57;;
68384;SDS011;55336;43.062;25.626;2022-12-07T13:12:56;7.03;;;6.43;;
68384;SDS011;55336;43.062;25.626;2022-12-07T13:15:53;6.38;;;5.88;;
68384;SDS011;55336;43.062;25.626;2022-12-07T13:20:58;7.05;;;6.38;;
68384;SDS011;55336;43.062;25.626;2022-12-07T13:26:18;9.38;;;7.22;;
68384;SDS011;55336;43.062;25.626;2022-12-07T13:29:09;7.43;;;6.68;;
68384;SDS011;55336;43.062;25.626;2022-12-07T13:34:02;15.65;;;9.52;;
68384;SDS011;55336;43.062;25.626;2022-12-07T13:36:34;7.90;;;7.15;;
68384;SDS011;55336;43.062;25.626;2022-12-07T13:39:20;9.82;;;6.75;;
68384;SDS011;55336;43.062;25.626;2022-12-07T13:41:51;4.93;;;4.53;;
68384;SDS011;55336;43.062;25.626;2022-12-07T13:44:20;6.85;;;5.88;;
68384;SDS011;55336;43.062;25.626;2022-12-07T13:46:54;5.45;;;4.95;;
68384;SDS011;55336;43.062;25.626;2022-12-07T13:49:47;9.30;;;6.55;;
68384;SDS011;55336;43.062;25.626;2022-12-07T13:52:22;15.15;;;8.52;;
68384;SDS011;55336;43.062;25.626;2022-12-07T13:54:57;10.75;;;7.82;;
68384;SDS011;55336;43.062;25.626;2022-12-07T13:57:36;11.27;;;8.50;;
68384;SDS011;55336;43.062;25.626;2022-12-07T14:02:30;12.07;;;10.95;;
68384;SDS011;55336;43.062;25.626;2022-12-07T14:05:12;10.60;;;9.60;;
68384;SDS011;55336;43.062;25.626;2022-12-07T14:07:53;11.90;;;10.70;;
68384;SDS011;55336;43.062;25.626;2022-12-07T14:10:25;14.55;;;10.25;;
68384;SDS011;55336;43.062;25.626;2022-12-07T14:12:54;10.68;;;9.63;;
68384;SDS011;55336;43.062;25.626;2022-12-07T14:15:21;11.57;;;10.48;;
68384;SDS011;55336;43.062;25.626;2022-12-07T14:17:50;12.15;;;10.80;;
68384;SDS011;55336;43.062;25.626;2022-12-07T14:20:37;12.75;;;11.55;;
68384;SDS011;55336;43.062;25.626;2022-12-07T14:25:47;15.43;;;9.65;;
68384;SDS011;55336;43.062;25.626;2022-12-07T14:28:24;12.15;;;10.15;;
68384;SDS011;55336;43.062;25.626;2022-12-07T14:30:52;11.32;;;10.15;;
68384;SDS011;55336;43.062;25.626;2022-12-07T14:35:45;9.85;;;8.95;;
68384;SDS011;55336;43.062;25.626;2022-12-07T14:40:36;20.20;;;12.60;;
68384;SDS011;55336;43.062;25.626;2022-12-07T14:43:06;26.30;;;12.55;;
68384;SDS011;55336;43.062;25.626;2022-12-07T14:45:35;24.35;;;11.90;;
68384;SDS011;55336;43.062;25.626;2022-12-07T14:50:35;12.73;;;8.98;;
68384;SDS011;55336;43.062;25.626;2022-12-07T14:53:12;13.23;;;9.82;;
68384;SDS011;55336;43.062;25.626;2022-12-07T14:55:40;14.30;;;10.30;;
68384;SDS011;55336;43.062;25.626;2022-12-07T14:58:08;22.17;;;14.13;;
68384;SDS011;55336;43.062;25.626;2022-12-07T15:00:41;15.82;;;12.02;;
68384;SDS011;55336;43.062;25.626;2022-12-07T15:03:07;13.23;;;10.55;;
68384;SDS011;55336;43.062;25.626;2022-12-07T15:07:59;13.52;;;11.95;;
68384;SDS011;55336;43.062;25.626;2022-12-07T15:12:57;10.35;;;9.27;;
68384;SDS011;55336;43.062;25.626;2022-12-07T15:18:09;14.90;;;10.30;;
68384;SDS011;55336;43.062;25.626;2022-12-07T15:23:01;7.53;;;6.53;;
68384;SDS011;55336;43.062;25.626;2022-12-07T15:27:52;11.15;;;9.75;;
68384;SDS011;55336;43.062;25.626;2022-12-07T15:32:44;15.45;;;10.88;;
68384;SDS011;55336;43.062;25.626;2022-12-07T15:35:14;12.10;;;9.75;;
68384;SDS011;55336;43.062;25.626;2022-12-07T15:40:06;17.27;;;10.80;;
68384;SDS011;55336;43.062;25.626;2022-12-07T15:42:32;13.48;;;9.93;;
68384;SDS011;55336;43.062;25.626;2022-12-07T15:47:34;16.48;;;9.85;;
68384;SDS011;55336;43.062;25.626;2022-12-07T15:50:02;12.50;;;9.20;;
68384;SDS011;55336;43.062;25.626;2022-12-07T15:52:29;13.13;;;10.82;;
68384;SDS011;55336;43.062;25.626;2022-12-07T15:54:55;17.05;;;12.02;;
68384;SDS011;55336;43.062;25.626;2022-12-07T15:57:21;12.77;;;10.80;;
68384;SDS011;55336;43.062;25.626;2022-12-07T15:59:47;20.23;;;13.38;;
68384;SDS011;55336;43.062;25.626;2022-12-07T16:02:13;16.58;;;11.15;;
68384;SDS011;55336;43.062;25.626;2022-12-07T16:04:39;25.77;;;14.25;;
68384;SDS011;55336;43.062;25.626;2022-12-07T16:07:05;17.23;;;12.88;;
68384;SDS011;55336;43.062;25.626;2022-12-07T16:09:31;27.95;;;13.40;;
68384;SDS011;55336;43.062;25.626;2022-12-07T16:14:22;15.80;;;10.70;;
68384;SDS011;55336;43.062;25.626;2022-12-07T16:16:48;14.40;;;11.27;;
68384;SDS011;55336;43.062;25.626;2022-12-07T16:19:14;22.13;;;12.00;;
68384;SDS011;55336;43.062;25.626;2022-12-07T16:21:41;14.02;;;11.73;;
68384;SDS011;55336;43.062;25.626;2022-12-07T16:24:07;13.05;;;10.63;;
68384;SDS011;55336;43.062;25.626;2022-12-07T16:26:35;11.45;;;9.88;;
68384;SDS011;55336;43.062;25.626;2022-12-07T16:29:01;11.13;;;9.77;;
68384;SDS011;55336;43.062;25.626;2022-12-07T16:31:27;9.70;;;8.60;;
68384;SDS011;55336;43.062;25.626;2022-12-07T16:33:54;9.88;;;8.85;;
68384;SDS011;55336;43.062;25.626;2022-12-07T16:36:21;12.02;;;10.35;;
68384;SDS011;55336;43.062;25.626;2022-12-07T16:38:49;14.02;;;11.43;;
68384;SDS011;55336;43.062;25.626;2022-12-07T16:41:16;10.55;;;9.52;;
68384;SDS011;55336;43.062;25.626;2022-12-07T16:43:42;13.55;;;10.20;;
68384;SDS011;55336;43.062;25.626;2022-12-07T16:46:07;13.50;;;10.93;;
68384;SDS011;55336;43.062;25.626;2022-12-07T16:48:35;12.45;;;11.20;;
68384;SDS011;55336;43.062;25.626;2022-12-07T16:51:05;12.57;;;11.27;;
68384;SDS011;55336;43.062;25.626;2022-12-07T16:53:31;13.25;;;11.70;;
68384;SDS011;55336;43.062;25.626;2022-12-07T16:55:57;12.27;;;10.98;;
68384;SDS011;55336;43.062;25.626;2022-12-07T16:58:24;10.60;;;9.60;;
68384;SDS011;55336;43.062;25.626;2022-12-07T17:00:49;12.88;;;11.40;;
68384;SDS011;55336;43.062;25.626;2022-12-07T17:03:15;13.52;;;11.23;;
68384;SDS011;55336;43.062;25.626;2022-12-07T17:05:42;19.30;;;11.25;;
68384;SDS011;55336;43.062;25.626;2022-12-07T17:08:09;18.98;;;11.93;;
68384;SDS011;55336;43.062;25.626;2022-12-07T17:10:36;12.10;;;10.95;;
68384;SDS011;55336;43.062;25.626;2022-12-07T17:13:05;13.43;;;11.23;;
68384;SDS011;55336;43.062;25.626;2022-12-07T17:16:00;12.68;;;11.35;;
68384;SDS011;55336;43.062;25.626;2022-12-07T17:18:29;12.23;;;11.00;;
68384;SDS011;55336;43.062;25.626;2022-12-07T17:21:07;16.45;;;11.88;;
68384;SDS011;55336;43.062;25.626;2022-12-07T17:23:34;14.13;;;10.75;;
68384;SDS011;55336;43.062;25.626;2022-12-07T17:26:08;14.30;;;11.90;;
68384;SDS011;55336;43.062;25.626;2022-12-07T17:28:36;14.70;;;11.55;;
68384;SDS011;55336;43.062;25.626;2022-12-07T17:31:06;13.57;;;10.95;;
68384;SDS011;55336;43.062;25.626;2022-12-07T17:33:34;11.43;;;10.32;;
68384;SDS011;55336;43.062;25.626;2022-12-07T17:36:00;11.02;;;9.93;;
68384;SDS011;55336;43.062;25.626;2022-12-07T17:38:33;15.48;;;11.35;;
68384;SDS011;55336;43.062;25.626;2022-12-07T17:40:59;13.35;;;9.93;;
68384;SDS011;55336;43.062;25.626;2022-12-07T17:43:25;14.90;;;11.18;;
68384;SDS011;55336;43.062;25.626;2022-12-07T17:45:51;15.88;;;10.63;;
68384;SDS011;55336;43.062;25.626;2022-12-07T17:48:17;11.23;;;10.13;;
68384;SDS011;55336;43.062;25.626;2022-12-07T17:50:42;10.55;;;8.90;;
68384;SDS011;55336;43.062;25.626;2022-12-07T17:53:27;19.00;;;9.90;;
68384;SDS011;55336;43.062;25.626;2022-12-07T17:55:53;9.82;;;8.68;;
68384;SDS011;55336;43.062;25.626;2022-12-07T17:58:20;11.70;;;9.15;;
68384;SDS011;55336;43.062;25.626;2022-12-07T18:00:46;11.13;;;9.23;;
68384;SDS011;55336;43.062;25.626;2022-12-07T18:03:11;9.60;;;8.60;;
68384;SDS011;55336;43.062;25.626;2022-12-07T18:05:37;9.38;;;8.38;;
68384;SDS011;55336;43.062;25.626;2022-12-07T18:08:08;10.75;;;8.65;;
68384;SDS011;55336;43.062;25.626;2022-12-07T18:10:34;10.02;;;8.95;;
68384;SDS011;55336;43.062;25.626;2022-12-07T18:13:00;10.35;;;9.07;;
68384;SDS011;55336;43.062;25.626;2022-12-07T18:15:45;15.45;;;10.65;;
68384;SDS011;55336;43.062;25.626;2022-12-07T18:18:10;12.07;;;10.40;;
68384;SDS011;55336;43.062;25.626;2022-12-07T18:20:36;15.25;;;9.68;;